createdAt,value
2022-09-07T00:00:09.814Z,3.20
2022-09-07T00:00:21.585Z,3.40
2022-09-07T00:00:33.957Z,3.60
2022-09-07T00:00:47.440Z,3.50
2022-09-07T00:00:58.261Z,3.60
2022-09-07T00:01:09.051Z,3.50
2022-09-07T00:01:21.580Z,3.40
2022-09-07T00:01:32.352Z,3.40
2022-09-07T00:01:43.085Z,3.30
2022-09-07T00:01:53.813Z,3.40
2022-09-07T00:02:04.590Z,3.30
2022-09-07T00:02:15.381Z,3.20
2022-09-07T00:02:26.140Z,3.40
2022-09-07T00:02:36.889Z,3.30
2022-09-07T00:02:47.662Z,3.30
2022-09-07T00:03:00.224Z,3.30
2022-09-07T00:03:11.173Z,3.30
2022-09-07T00:03:23.812Z,3.20
2022-09-07T00:03:34.731Z,3.40
2022-09-07T00:03:45.502Z,3.60
2022-09-07T00:03:56.306Z,3.60
2022-09-07T00:04:07.095Z,3.70
2022-09-07T00:04:18.836Z,3.60
2022-09-07T00:04:29.632Z,3.60
2022-09-07T00:04:42.259Z,3.40
2022-09-07T00:04:53.993Z,3.40
2022-09-07T00:05:05.727Z,3.20
2022-09-07T00:05:18.226Z,3.10
2022-09-07T00:05:29.002Z,3.10
2022-09-07T00:05:39.744Z,3.40
2022-09-07T00:05:52.472Z,3.30
2022-09-07T00:06:03.248Z,3.40
2022-09-07T00:06:14.063Z,3.20
2022-09-07T00:06:24.853Z,3.10
2022-09-07T00:06:35.614Z,3.30
2022-09-07T00:06:46.371Z,3.50
2022-09-07T00:06:57.150Z,3.50
2022-09-07T00:07:07.913Z,3.70
2022-09-07T00:07:19.775Z,3.50
2022-09-07T00:07:30.576Z,3.40
2022-09-07T00:07:41.345Z,3.40
2022-09-07T00:07:52.123Z,3.60
2022-09-07T00:08:03.876Z,3.50
2022-09-07T00:08:14.621Z,3.60
2022-09-07T00:08:25.398Z,3.40
2022-09-07T00:08:36.136Z,3.30
2022-09-07T00:08:48.374Z,3.30
2022-09-07T00:08:59.162Z,3.20
2022-09-07T00:09:11.662Z,3.30
2022-09-07T00:09:23.453Z,3.40
2022-09-07T00:09:35.904Z,3.40
2022-09-07T00:09:46.657Z,3.60
2022-09-07T00:09:57.435Z,3.80
2022-09-07T00:10:08.225Z,3.70
2022-09-07T00:10:18.972Z,3.80
2022-09-07T00:10:29.755Z,3.50
2022-09-07T00:10:40.543Z,3.60
2022-09-07T00:10:53.254Z,3.30
2022-09-07T00:11:04.058Z,3.70
2022-09-07T00:11:14.830Z,3.60
2022-09-07T00:11:26.577Z,3.60
2022-09-07T00:11:37.326Z,3.40
2022-09-07T00:11:48.074Z,3.40
2022-09-07T00:11:58.833Z,3.30
2022-09-07T00:12:09.614Z,3.30
2022-09-07T00:12:20.368Z,3.40
2022-09-07T00:12:32.127Z,3.40
2022-09-07T00:12:42.916Z,3.60
2022-09-07T00:12:54.663Z,3.80
2022-09-07T00:13:05.404Z,3.90
2022-09-07T00:13:17.105Z,3.40
2022-09-07T00:13:27.895Z,3.20
2022-09-07T00:13:38.658Z,3.10
2022-09-07T00:13:49.417Z,3.40
2022-09-07T00:14:00.204Z,3.50
2022-09-07T00:14:10.935Z,3.30
2022-09-07T00:14:21.726Z,3.30
2022-09-07T00:14:33.446Z,3.40
2022-09-07T00:14:44.184Z,3.40
2022-09-07T00:14:56.395Z,3.40
2022-09-07T00:15:07.235Z,3.50
2022-09-07T00:15:18.007Z,3.40
2022-09-07T00:15:28.759Z,3.40
2022-09-07T00:15:39.496Z,3.30
2022-09-07T00:15:51.282Z,3.40
2022-09-07T00:16:02.047Z,3.20
2022-09-07T00:16:12.848Z,3.20
2022-09-07T00:16:24.605Z,3.20
2022-09-07T00:16:35.398Z,3.40
2022-09-07T00:16:46.127Z,3.50
2022-09-07T00:16:56.868Z,3.40
2022-09-07T00:17:07.608Z,3.50
2022-09-07T00:17:18.391Z,3.60
2022-09-07T00:17:29.149Z,3.50
2022-09-07T00:17:39.956Z,3.50
2022-09-07T00:17:50.705Z,3.50
2022-09-07T00:18:01.465Z,3.40
2022-09-07T00:18:12.227Z,3.30
2022-09-07T00:18:22.977Z,3.30
2022-09-07T00:18:33.718Z,3.30
2022-09-07T00:18:46.233Z,3.40
2022-09-07T00:18:57.337Z,3.30
2022-09-07T00:19:08.080Z,3.30
2022-09-07T00:19:18.877Z,3.30
2022-09-07T00:19:29.638Z,3.20
2022-09-07T00:19:41.398Z,3.10
2022-09-07T00:19:52.138Z,3.20
2022-09-07T00:20:02.895Z,3.50
2022-09-07T00:20:13.678Z,3.20
2022-09-07T00:20:24.449Z,3.30
2022-09-07T00:20:35.208Z,3.40
2022-09-07T00:20:45.940Z,3.50
2022-09-07T00:20:56.691Z,3.60
2022-09-07T00:21:08.411Z,3.50
2022-09-07T00:21:19.158Z,3.80
2022-09-07T00:21:29.919Z,3.90
2022-09-07T00:21:40.669Z,3.90
2022-09-07T00:21:51.409Z,3.50
2022-09-07T00:22:02.150Z,3.40
2022-09-07T00:22:12.888Z,3.10
2022-09-07T00:22:23.629Z,3.40
2022-09-07T00:22:34.379Z,3.40
2022-09-07T00:22:45.109Z,3.80
2022-09-07T00:22:55.862Z,3.70
2022-09-07T00:23:06.687Z,3.60
2022-09-07T00:23:17.409Z,3.60
2022-09-07T00:23:28.161Z,3.70
2022-09-07T00:23:38.921Z,3.60
2022-09-07T00:23:49.659Z,3.50
2022-09-07T00:24:00.401Z,3.40
2022-09-07T00:24:11.130Z,3.50
2022-09-07T00:24:21.890Z,3.40
2022-09-07T00:24:32.692Z,3.30
2022-09-07T00:24:43.419Z,3.20
2022-09-07T00:24:54.180Z,3.30
2022-09-07T00:25:04.948Z,3.50
2022-09-07T00:25:17.171Z,3.30
2022-09-07T00:25:30.792Z,3.20
2022-09-07T00:25:42.691Z,3.20
2022-09-07T00:25:54.215Z,3.20
2022-09-07T00:26:05.040Z,3.10
2022-09-07T00:26:15.780Z,3.30
2022-09-07T00:26:26.560Z,3.30
2022-09-07T00:26:37.300Z,3.40
2022-09-07T00:26:48.039Z,3.30
2022-09-07T00:26:58.792Z,3.40
2022-09-07T00:27:09.555Z,3.30
2022-09-07T00:27:21.251Z,3.10
2022-09-07T00:27:32.011Z,3.10
2022-09-07T00:27:43.501Z,3.40
2022-09-07T00:27:55.243Z,4.10
2022-09-07T00:28:07.962Z,3.90
2022-09-07T00:28:21.191Z,3.80
2022-09-07T00:28:34.183Z,3.60
2022-09-07T00:28:44.941Z,3.50
2022-09-07T00:28:57.384Z,3.30
2022-09-07T00:29:09.084Z,3.50
2022-09-07T00:29:21.512Z,3.50
2022-09-07T00:29:32.242Z,3.70
2022-09-07T00:29:44.512Z,3.50
2022-09-07T00:29:57.002Z,3.40
2022-09-07T00:30:08.980Z,3.50
2022-09-07T00:30:19.732Z,3.60
2022-09-07T00:30:30.502Z,3.50
2022-09-07T00:30:41.280Z,3.40
2022-09-07T00:30:52.022Z,3.80
2022-09-07T00:31:04.046Z,3.60
2022-09-07T00:31:16.493Z,3.50
2022-09-07T00:31:27.294Z,3.30
2022-09-07T00:31:40.543Z,3.60
2022-09-07T00:31:51.351Z,3.50
2022-09-07T00:32:02.133Z,3.50
2022-09-07T00:32:12.920Z,3.70
2022-09-07T00:32:24.598Z,3.70
2022-09-07T00:32:35.348Z,3.50
2022-09-07T00:32:46.078Z,3.50
2022-09-07T00:32:56.865Z,3.60
2022-09-07T00:33:10.563Z,3.50
2022-09-07T00:33:21.310Z,3.40
2022-09-07T00:33:33.003Z,3.30
2022-09-07T00:33:43.754Z,3.30
2022-09-07T00:33:54.495Z,3.30
2022-09-07T00:34:06.196Z,3.40
2022-09-07T00:34:16.934Z,3.60
2022-09-07T00:34:28.661Z,3.60
2022-09-07T00:34:39.425Z,3.60
2022-09-07T00:34:50.166Z,3.40
2022-09-07T00:35:00.923Z,3.20
2022-09-07T00:35:12.665Z,3.40
2022-09-07T00:35:23.437Z,3.50
2022-09-07T00:35:35.098Z,3.60
2022-09-07T00:35:45.864Z,3.40
2022-09-07T00:35:56.627Z,3.40
2022-09-07T00:36:07.388Z,3.40
2022-09-07T00:36:18.114Z,3.50
2022-09-07T00:36:28.873Z,3.50
2022-09-07T00:36:39.614Z,3.60
2022-09-07T00:36:52.316Z,3.50
2022-09-07T00:37:03.085Z,3.10
2022-09-07T00:37:13.834Z,3.10
2022-09-07T00:37:24.574Z,3.50
2022-09-07T00:37:35.316Z,3.60
2022-09-07T00:37:46.052Z,3.60
2022-09-07T00:37:56.794Z,3.70
2022-09-07T00:38:07.575Z,3.50
2022-09-07T00:38:19.825Z,3.50
2022-09-07T00:38:30.670Z,3.40
2022-09-07T00:38:43.145Z,3.50
2022-09-07T00:38:53.941Z,3.40
2022-09-07T00:39:04.696Z,3.70
2022-09-07T00:39:15.435Z,3.90
2022-09-07T00:39:26.214Z,3.70
2022-09-07T00:39:38.711Z,3.50
2022-09-07T00:39:49.655Z,3.30
2022-09-07T00:40:00.531Z,3.50
2022-09-07T00:40:11.330Z,3.60
2022-09-07T00:40:23.747Z,3.60
2022-09-07T00:40:34.486Z,3.60
2022-09-07T00:40:45.287Z,3.40
2022-09-07T00:40:57.743Z,3.80
2022-09-07T00:41:08.515Z,3.60
2022-09-07T00:41:19.296Z,3.60
2022-09-07T00:41:30.990Z,3.40
2022-09-07T00:41:41.787Z,3.50
2022-09-07T00:41:53.498Z,3.40
2022-09-07T00:42:04.243Z,3.50
2022-09-07T00:42:15.017Z,3.80
2022-09-07T00:42:25.774Z,3.80
2022-09-07T00:42:36.522Z,3.80
2022-09-07T00:42:48.231Z,3.50
2022-09-07T00:42:58.987Z,3.70
2022-09-07T00:43:10.724Z,3.50
2022-09-07T00:43:21.499Z,3.80
2022-09-07T00:43:32.266Z,3.30
2022-09-07T00:43:43.127Z,3.40
2022-09-07T00:43:53.861Z,3.20
2022-09-07T00:44:04.614Z,3.50
2022-09-07T00:44:16.331Z,3.50
2022-09-07T00:44:28.037Z,3.60
2022-09-07T00:44:40.488Z,3.80
2022-09-07T00:44:51.247Z,3.60
2022-09-07T00:45:01.988Z,3.60
2022-09-07T00:45:12.792Z,3.90
2022-09-07T00:45:23.551Z,3.90
2022-09-07T00:45:34.303Z,3.40
2022-09-07T00:45:45.098Z,3.40
2022-09-07T00:45:55.902Z,3.50
2022-09-07T00:46:06.694Z,3.60
2022-09-07T00:46:17.509Z,3.70
2022-09-07T00:46:28.292Z,3.50
2022-09-07T00:46:39.093Z,3.50
2022-09-07T00:46:49.899Z,3.60
2022-09-07T00:47:00.689Z,3.80
2022-09-07T00:47:11.501Z,3.80
2022-09-07T00:47:22.250Z,3.80
2022-09-07T00:47:32.987Z,3.60
2022-09-07T00:47:43.752Z,3.40
2022-09-07T00:47:55.441Z,3.30
2022-09-07T00:48:06.198Z,3.20
2022-09-07T00:48:17.016Z,3.20
2022-09-07T00:48:27.834Z,3.20
2022-09-07T00:48:41.450Z,3.40
2022-09-07T00:48:52.209Z,3.50
2022-09-07T00:49:03.950Z,3.30
2022-09-07T00:49:16.459Z,3.70
2022-09-07T00:49:27.254Z,3.80
2022-09-07T00:49:38.006Z,3.80
2022-09-07T00:49:48.766Z,3.80
2022-09-07T00:50:00.959Z,3.50
2022-09-07T00:50:12.699Z,3.70
2022-09-07T00:50:24.400Z,3.70
2022-09-07T00:50:35.139Z,3.50
2022-09-07T00:50:45.930Z,3.40
2022-09-07T00:50:58.449Z,3.20
2022-09-07T00:51:10.144Z,3.20
2022-09-07T00:51:20.909Z,3.30
2022-09-07T00:51:31.660Z,3.30
2022-09-07T00:51:42.400Z,3.20
2022-09-07T00:51:53.150Z,3.40
2022-09-07T00:52:05.372Z,3.50
2022-09-07T00:52:16.114Z,3.60
2022-09-07T00:52:26.897Z,3.60
2022-09-07T00:52:38.611Z,3.50
2022-09-07T00:52:49.393Z,3.50
2022-09-07T00:53:00.179Z,3.20
2022-09-07T00:53:10.961Z,3.40
2022-09-07T00:53:22.632Z,3.60
2022-09-07T00:53:35.081Z,3.40
2022-09-07T00:53:45.821Z,3.40
2022-09-07T00:53:57.523Z,3.40
2022-09-07T00:54:09.963Z,3.50
2022-09-07T00:54:20.703Z,3.50
2022-09-07T00:54:31.471Z,3.40
2022-09-07T00:54:42.214Z,3.10
2022-09-07T00:54:53.022Z,3.30
2022-09-07T00:55:04.752Z,3.40
2022-09-07T00:55:15.495Z,3.80
2022-09-07T00:55:26.253Z,4.00
2022-09-07T00:55:37.001Z,3.80
2022-09-07T00:55:49.703Z,3.80
2022-09-07T00:56:00.454Z,3.40
2022-09-07T00:56:11.189Z,3.20
2022-09-07T00:56:21.923Z,3.30
2022-09-07T00:56:32.662Z,3.40
2022-09-07T00:56:43.402Z,3.60
2022-09-07T00:56:54.192Z,3.40
2022-09-07T00:57:04.964Z,3.40
2022-09-07T00:57:15.745Z,3.60
2022-09-07T00:57:26.502Z,3.70
2022-09-07T00:57:37.384Z,3.90
2022-09-07T00:57:48.222Z,3.60
2022-09-07T00:57:58.963Z,3.70
2022-09-07T00:58:11.402Z,3.80
2022-09-07T00:58:22.133Z,3.70
2022-09-07T00:58:32.872Z,3.60
2022-09-07T00:58:43.602Z,3.40
2022-09-07T00:58:56.033Z,3.60
2022-09-07T00:59:07.763Z,3.60
2022-09-07T00:59:20.714Z,3.60
2022-09-07T00:59:31.474Z,3.50
2022-09-07T00:59:43.273Z,3.40
2022-09-07T00:59:54.023Z,3.60
2022-09-07T01:00:04.804Z,3.60
2022-09-07T01:00:15.563Z,3.70
2022-09-07T01:00:26.302Z,3.60
2022-09-07T01:00:37.044Z,3.50
2022-09-07T01:00:47.813Z,3.80
2022-09-07T01:00:58.552Z,3.30
2022-09-07T01:01:09.295Z,3.70
2022-09-07T01:01:20.183Z,3.70
2022-09-07T01:01:32.785Z,4.00
2022-09-07T01:01:43.653Z,3.60
2022-09-07T01:01:54.664Z,3.60
2022-09-07T01:02:05.592Z,3.40
2022-09-07T01:02:16.513Z,3.40
2022-09-07T01:02:27.355Z,3.50
2022-09-07T01:02:38.263Z,3.40
2022-09-07T01:02:50.166Z,3.60
2022-09-07T01:03:01.087Z,3.90
2022-09-07T01:03:12.865Z,3.70
2022-09-07T01:03:23.594Z,3.80
2022-09-07T01:03:35.796Z,3.50
2022-09-07T01:03:46.545Z,3.70
2022-09-07T01:03:58.263Z,3.50
2022-09-07T01:04:08.997Z,3.50
2022-09-07T01:04:19.746Z,3.40
2022-09-07T01:04:30.485Z,3.60
2022-09-07T01:04:41.245Z,3.10
2022-09-07T01:04:51.985Z,3.30
2022-09-07T01:05:05.421Z,3.30
2022-09-07T01:05:18.387Z,3.40
2022-09-07T01:05:30.086Z,3.30
2022-09-07T01:05:42.538Z,3.50
2022-09-07T01:05:53.286Z,3.60
2022-09-07T01:06:04.056Z,3.50
2022-09-07T01:06:14.826Z,3.60
2022-09-07T01:06:25.574Z,3.50
2022-09-07T01:06:37.275Z,3.90
2022-09-07T01:06:48.014Z,3.80
2022-09-07T01:06:59.707Z,3.70
2022-09-07T01:07:10.457Z,3.30
2022-09-07T01:07:21.195Z,3.50
2022-09-07T01:07:31.929Z,3.70
2022-09-07T01:07:43.628Z,3.60
2022-09-07T01:07:56.067Z,3.40
2022-09-07T01:08:07.885Z,3.40
2022-09-07T01:08:18.658Z,3.30
2022-09-07T01:08:29.493Z,3.20
2022-09-07T01:08:40.377Z,3.20
2022-09-07T01:08:52.806Z,3.40
2022-09-07T01:09:03.548Z,3.40
2022-09-07T01:09:15.272Z,3.30
2022-09-07T01:09:27.477Z,3.10
2022-09-07T01:09:38.228Z,3.20
2022-09-07T01:09:49.957Z,3.20
2022-09-07T01:10:02.425Z,3.30
2022-09-07T01:10:13.180Z,3.50
2022-09-07T01:10:24.908Z,3.70
2022-09-07T01:10:36.630Z,3.50
2022-09-07T01:10:47.419Z,3.70
2022-09-07T01:10:59.158Z,3.50
2022-09-07T01:11:10.878Z,3.60
2022-09-07T01:11:21.630Z,3.70
2022-09-07T01:11:33.589Z,3.70
2022-09-07T01:11:44.376Z,3.50
2022-09-07T01:11:55.116Z,3.30
2022-09-07T01:12:05.878Z,3.30
2022-09-07T01:12:17.578Z,3.40
2022-09-07T01:12:28.318Z,3.50
2022-09-07T01:12:41.018Z,3.70
2022-09-07T01:12:53.449Z,3.50
2022-09-07T01:13:04.226Z,3.30
2022-09-07T01:13:15.959Z,3.50
2022-09-07T01:13:26.719Z,3.60
2022-09-07T01:13:37.457Z,3.70
2022-09-07T01:13:48.249Z,3.30
2022-09-07T01:13:58.981Z,3.00
2022-09-07T01:14:09.760Z,3.30
2022-09-07T01:14:20.530Z,3.50
2022-09-07T01:14:31.269Z,3.60
2022-09-07T01:14:42.063Z,3.30
2022-09-07T01:14:52.790Z,3.10
2022-09-07T01:15:03.569Z,3.20
2022-09-07T01:15:14.289Z,3.30
2022-09-07T01:15:25.991Z,3.40
2022-09-07T01:15:38.464Z,3.40
2022-09-07T01:15:49.221Z,3.50
2022-09-07T01:16:01.014Z,3.30
2022-09-07T01:16:11.773Z,3.30
2022-09-07T01:16:23.528Z,3.30
2022-09-07T01:16:34.300Z,3.40
2022-09-07T01:16:45.991Z,3.50
2022-09-07T01:16:56.728Z,3.30
2022-09-07T01:17:08.432Z,3.30
2022-09-07T01:17:20.131Z,3.40
2022-09-07T01:17:30.891Z,3.50
2022-09-07T01:17:44.491Z,3.50
2022-09-07T01:17:56.202Z,3.60
2022-09-07T01:18:06.944Z,3.60
2022-09-07T01:18:19.142Z,3.40
2022-09-07T01:18:31.723Z,3.30
2022-09-07T01:18:44.062Z,3.10
2022-09-07T01:18:54.811Z,3.40
2022-09-07T01:19:05.539Z,3.70
2022-09-07T01:19:16.331Z,3.80
2022-09-07T01:19:28.783Z,3.50
2022-09-07T01:19:40.504Z,3.40
2022-09-07T01:19:52.241Z,3.50
2022-09-07T01:20:03.971Z,3.70
2022-09-07T01:20:15.706Z,3.70
2022-09-07T01:20:26.462Z,3.20
2022-09-07T01:20:38.152Z,3.20
2022-09-07T01:20:48.921Z,3.50
2022-09-07T01:20:59.720Z,3.60
2022-09-07T01:21:10.483Z,3.70
2022-09-07T01:21:21.252Z,3.30
2022-09-07T01:21:33.703Z,3.70
2022-09-07T01:21:44.452Z,3.90
2022-09-07T01:21:55.206Z,4.00
2022-09-07T01:22:05.954Z,4.00
2022-09-07T01:22:16.713Z,4.00
2022-09-07T01:22:27.452Z,4.10
2022-09-07T01:22:38.195Z,3.70
2022-09-07T01:22:50.665Z,3.50
2022-09-07T01:23:01.401Z,3.10
2022-09-07T01:23:13.148Z,3.50
2022-09-07T01:23:25.344Z,3.90
2022-09-07T01:23:36.118Z,3.90
2022-09-07T01:23:46.884Z,3.60
2022-09-07T01:23:57.653Z,3.50
2022-09-07T01:24:08.396Z,3.40
2022-09-07T01:24:19.136Z,3.40
2022-09-07T01:24:29.888Z,3.60
2022-09-07T01:24:43.303Z,3.50
2022-09-07T01:24:54.053Z,3.40
2022-09-07T01:25:04.809Z,3.40
2022-09-07T01:25:15.598Z,3.50
2022-09-07T01:25:27.288Z,3.70
2022-09-07T01:25:38.026Z,3.80
2022-09-07T01:25:48.765Z,3.50
2022-09-07T01:25:59.514Z,3.40
2022-09-07T01:26:10.264Z,3.50
2022-09-07T01:26:21.005Z,3.90
2022-09-07T01:26:31.734Z,3.90
2022-09-07T01:26:43.240Z,3.90
2022-09-07T01:26:53.996Z,3.40
2022-09-07T01:27:04.726Z,3.30
2022-09-07T01:27:15.474Z,3.10
2022-09-07T01:27:26.224Z,3.50
2022-09-07T01:27:38.664Z,3.70
2022-09-07T01:27:49.403Z,3.70
2022-09-07T01:28:00.161Z,3.40
2022-09-07T01:28:10.895Z,3.30
2022-09-07T01:28:21.650Z,3.40
2022-09-07T01:28:34.055Z,3.60
2022-09-07T01:28:46.266Z,3.60
2022-09-07T01:28:58.005Z,3.70
2022-09-07T01:29:11.208Z,3.80
2022-09-07T01:29:22.066Z,3.90
2022-09-07T01:29:32.837Z,3.90
2022-09-07T01:29:43.576Z,3.90
2022-09-07T01:29:54.316Z,3.80
2022-09-07T01:30:06.554Z,3.70
2022-09-07T01:30:17.277Z,3.40
2022-09-07T01:30:30.014Z,3.40
2022-09-07T01:30:42.466Z,3.40
2022-09-07T01:30:53.245Z,3.70
2022-09-07T01:31:04.086Z,3.70
2022-09-07T01:31:15.815Z,3.60
2022-09-07T01:31:26.596Z,3.30
2022-09-07T01:31:37.401Z,3.50
2022-09-07T01:31:49.859Z,3.30
2022-09-07T01:32:00.661Z,3.30
2022-09-07T01:32:13.367Z,3.10
2022-09-07T01:32:24.155Z,3.70
2022-09-07T01:32:34.944Z,3.80
2022-09-07T01:32:45.728Z,3.70
2022-09-07T01:32:56.458Z,3.80
2022-09-07T01:33:07.227Z,3.60
2022-09-07T01:33:18.020Z,3.80
2022-09-07T01:33:28.769Z,3.60
2022-09-07T01:33:39.523Z,3.60
2022-09-07T01:33:51.230Z,3.40
2022-09-07T01:34:03.137Z,3.50
2022-09-07T01:34:13.927Z,3.80
2022-09-07T01:34:26.184Z,3.80
2022-09-07T01:34:36.958Z,3.70
2022-09-07T01:34:49.417Z,3.50
2022-09-07T01:35:00.155Z,3.50
2022-09-07T01:35:10.908Z,3.70
2022-09-07T01:35:22.642Z,3.90
2022-09-07T01:35:33.389Z,3.70
2022-09-07T01:35:44.147Z,3.80
2022-09-07T01:35:55.887Z,3.60
2022-09-07T01:36:07.597Z,3.60
2022-09-07T01:36:18.329Z,3.50
2022-09-07T01:36:30.828Z,3.50
2022-09-07T01:36:41.572Z,3.50
2022-09-07T01:36:52.339Z,3.60
2022-09-07T01:37:04.028Z,3.60
2022-09-07T01:37:14.774Z,3.70
2022-09-07T01:37:25.547Z,3.80
2022-09-07T01:37:36.286Z,3.60
2022-09-07T01:37:47.020Z,3.70
2022-09-07T01:37:58.719Z,3.40
2022-09-07T01:38:09.467Z,3.70
2022-09-07T01:38:22.673Z,3.20
2022-09-07T01:38:34.381Z,3.20
2022-09-07T01:38:45.143Z,3.40
2022-09-07T01:38:55.881Z,3.70
2022-09-07T01:39:06.622Z,3.40
2022-09-07T01:39:17.390Z,3.10
2022-09-07T01:39:28.263Z,3.20
2022-09-07T01:39:39.075Z,3.50
2022-09-07T01:39:51.619Z,3.60
2022-09-07T01:40:02.602Z,3.50
2022-09-07T01:40:13.517Z,3.50
2022-09-07T01:40:25.724Z,3.80
2022-09-07T01:40:36.468Z,3.60
2022-09-07T01:40:48.930Z,3.50
2022-09-07T01:40:59.682Z,3.20
2022-09-07T01:41:10.453Z,3.40
2022-09-07T01:41:21.230Z,3.20
2022-09-07T01:41:32.943Z,3.30
2022-09-07T01:41:44.650Z,3.30
2022-09-07T01:41:56.350Z,3.50
2022-09-07T01:42:08.052Z,3.50
2022-09-07T01:42:18.832Z,3.70
2022-09-07T01:42:30.551Z,3.70
2022-09-07T01:42:41.340Z,3.70
2022-09-07T01:42:53.052Z,3.80
2022-09-07T01:43:03.802Z,3.90
2022-09-07T01:43:14.530Z,3.60
2022-09-07T01:43:26.953Z,3.40
2022-09-07T01:43:37.681Z,3.50
2022-09-07T01:43:48.431Z,3.20
2022-09-07T01:43:59.183Z,3.50
2022-09-07T01:44:09.951Z,3.20
2022-09-07T01:44:20.730Z,3.30
2022-09-07T01:44:32.476Z,3.30
2022-09-07T01:44:44.934Z,3.30
2022-09-07T01:44:55.693Z,3.10
2022-09-07T01:45:06.444Z,3.20
2022-09-07T01:45:17.181Z,3.30
2022-09-07T01:45:29.642Z,3.20
2022-09-07T01:45:40.382Z,3.50
2022-09-07T01:45:51.162Z,3.60
2022-09-07T01:46:01.997Z,3.60
2022-09-07T01:46:12.759Z,3.30
2022-09-07T01:46:23.598Z,3.20
2022-09-07T01:46:35.415Z,3.40
2022-09-07T01:46:46.247Z,3.60
2022-09-07T01:46:57.992Z,3.80
2022-09-07T01:47:08.742Z,3.80
2022-09-07T01:47:19.493Z,3.80
2022-09-07T01:47:30.242Z,3.40
2022-09-07T01:47:40.985Z,3.80
2022-09-07T01:47:52.673Z,3.90
2022-09-07T01:48:03.422Z,3.60
2022-09-07T01:48:15.218Z,3.40
2022-09-07T01:48:26.081Z,3.60
2022-09-07T01:48:36.843Z,3.60
2022-09-07T01:48:48.543Z,3.40
2022-09-07T01:48:59.315Z,3.50
2022-09-07T01:49:11.045Z,3.50
2022-09-07T01:49:21.814Z,3.60
2022-09-07T01:49:32.564Z,3.60
2022-09-07T01:49:43.313Z,3.50
2022-09-07T01:49:54.064Z,3.60
2022-09-07T01:50:04.822Z,3.40
2022-09-07T01:50:15.583Z,3.50
2022-09-07T01:50:26.444Z,3.50
2022-09-07T01:50:37.204Z,3.70
2022-09-07T01:50:48.944Z,3.70
2022-09-07T01:50:59.687Z,3.80
2022-09-07T01:51:10.476Z,3.70
2022-09-07T01:51:22.956Z,3.60
2022-09-07T01:51:33.746Z,3.60
2022-09-07T01:51:44.481Z,3.60
2022-09-07T01:51:56.906Z,3.20
2022-09-07T01:52:08.614Z,3.10
2022-09-07T01:52:19.353Z,3.30
2022-09-07T01:52:30.104Z,3.30
2022-09-07T01:52:40.857Z,3.40
2022-09-07T01:52:51.652Z,3.50
2022-09-07T01:53:02.413Z,3.40
2022-09-07T01:53:13.180Z,3.60
2022-09-07T01:53:23.914Z,3.70
2022-09-07T01:53:34.694Z,3.90
2022-09-07T01:53:45.423Z,3.70
2022-09-07T01:53:56.163Z,3.60
2022-09-07T01:54:06.931Z,3.50
2022-09-07T01:54:17.675Z,3.50
2022-09-07T01:54:29.405Z,3.50
2022-09-07T01:54:41.145Z,3.60
2022-09-07T01:54:52.895Z,3.60
2022-09-07T01:55:03.647Z,3.70
2022-09-07T01:55:15.347Z,3.60
2022-09-07T01:55:27.064Z,3.50
2022-09-07T01:55:38.747Z,3.30
2022-09-07T01:55:49.510Z,3.40
2022-09-07T01:56:01.237Z,3.50
2022-09-07T01:56:11.978Z,3.40
2022-09-07T01:56:22.782Z,3.30
2022-09-07T01:56:34.982Z,3.40
2022-09-07T01:56:45.747Z,3.20
2022-09-07T01:56:56.496Z,3.50
2022-09-07T01:57:08.967Z,3.50
2022-09-07T01:57:19.706Z,3.60
2022-09-07T01:57:31.418Z,3.30
2022-09-07T01:57:43.128Z,3.30
2022-09-07T01:57:53.866Z,3.20
2022-09-07T01:58:05.587Z,3.20
2022-09-07T01:58:16.382Z,3.10
2022-09-07T01:58:27.225Z,3.10
2022-09-07T01:58:37.968Z,3.00
2022-09-07T01:58:48.705Z,3.50
2022-09-07T01:58:59.474Z,3.80
2022-09-07T01:59:10.197Z,3.70
2022-09-07T01:59:20.936Z,3.50
2022-09-07T01:59:32.672Z,3.40
2022-09-07T01:59:43.456Z,3.70
2022-09-07T01:59:54.206Z,3.50
2022-09-07T02:00:05.069Z,3.70
2022-09-07T02:00:15.807Z,3.60
2022-09-07T02:00:27.520Z,3.60
2022-09-07T02:00:38.239Z,3.90
2022-09-07T02:00:49.947Z,3.90
2022-09-07T02:01:02.409Z,3.70
2022-09-07T02:01:13.254Z,3.40
2022-09-07T02:01:24.088Z,3.60
2022-09-07T02:01:34.932Z,3.60
2022-09-07T02:01:47.696Z,3.60
2022-09-07T02:01:58.495Z,3.60
2022-09-07T02:02:09.283Z,3.60
2022-09-07T02:02:20.044Z,3.60
2022-09-07T02:02:30.914Z,3.50
2022-09-07T02:02:42.787Z,3.50
2022-09-07T02:02:53.605Z,3.70
2022-09-07T02:03:04.471Z,3.80
2022-09-07T02:03:17.159Z,4.00
2022-09-07T02:03:27.927Z,3.80
2022-09-07T02:03:38.670Z,3.60
2022-09-07T02:03:49.413Z,3.60
2022-09-07T02:04:01.104Z,3.50
2022-09-07T02:04:11.918Z,3.40
2022-09-07T02:04:22.628Z,3.20
2022-09-07T02:04:34.853Z,3.40
2022-09-07T02:04:45.592Z,3.60
2022-09-07T02:04:57.320Z,3.70
2022-09-07T02:05:08.049Z,3.80
2022-09-07T02:05:18.820Z,3.70
2022-09-07T02:05:29.610Z,3.50
2022-09-07T02:05:40.354Z,3.50
2022-09-07T02:05:51.129Z,3.50
2022-09-07T02:06:02.810Z,3.60
2022-09-07T02:06:13.568Z,3.60
2022-09-07T02:06:24.310Z,3.60
2022-09-07T02:06:36.038Z,3.60
2022-09-07T02:06:46.760Z,3.70
2022-09-07T02:06:58.480Z,3.60
2022-09-07T02:07:09.271Z,3.90
2022-09-07T02:07:20.020Z,3.70
2022-09-07T02:07:31.710Z,3.60
2022-09-07T02:07:42.488Z,3.30
2022-09-07T02:07:53.226Z,3.70
2022-09-07T02:08:03.960Z,3.70
2022-09-07T02:08:14.722Z,3.60
2022-09-07T02:08:25.470Z,3.50
2022-09-07T02:08:37.181Z,3.40
2022-09-07T02:08:48.161Z,3.50
2022-09-07T02:08:59.860Z,3.50
2022-09-07T02:09:10.591Z,3.50
2022-09-07T02:09:22.343Z,3.60
2022-09-07T02:09:33.155Z,3.50
2022-09-07T02:09:43.881Z,3.40
2022-09-07T02:09:54.619Z,3.40
2022-09-07T02:10:05.381Z,3.50
2022-09-07T02:10:17.071Z,3.50
2022-09-07T02:10:27.863Z,3.60
2022-09-07T02:10:40.334Z,3.60
2022-09-07T02:10:51.072Z,3.70
2022-09-07T02:11:02.827Z,3.70
2022-09-07T02:11:14.522Z,3.90
2022-09-07T02:11:26.252Z,4.20
2022-09-07T02:11:37.111Z,4.00
2022-09-07T02:11:49.573Z,3.90
2022-09-07T02:12:01.274Z,3.60
2022-09-07T02:12:12.023Z,3.40
2022-09-07T02:12:22.774Z,3.10
2022-09-07T02:12:33.512Z,3.00
2022-09-07T02:12:44.281Z,3.40
2022-09-07T02:12:56.713Z,3.50
2022-09-07T02:13:07.464Z,3.40
2022-09-07T02:13:19.943Z,3.50
2022-09-07T02:13:30.722Z,3.40
2022-09-07T02:13:43.205Z,3.50
2022-09-07T02:13:53.972Z,3.60
2022-09-07T02:14:04.712Z,3.60
2022-09-07T02:14:15.490Z,3.60
2022-09-07T02:14:27.194Z,3.60
2022-09-07T02:14:37.958Z,3.80
2022-09-07T02:14:52.682Z,3.70
2022-09-07T02:15:04.549Z,3.80
2022-09-07T02:15:15.276Z,4.00
2022-09-07T02:15:26.033Z,4.10
2022-09-07T02:15:36.808Z,4.10
2022-09-07T02:15:48.563Z,4.10
2022-09-07T02:15:59.361Z,3.80
2022-09-07T02:16:11.218Z,3.50
2022-09-07T02:16:22.071Z,3.80
2022-09-07T02:16:33.786Z,3.80
2022-09-07T02:16:44.552Z,3.70
2022-09-07T02:16:56.995Z,3.60
2022-09-07T02:17:09.455Z,3.50
2022-09-07T02:17:20.197Z,3.40
2022-09-07T02:17:30.965Z,3.40
2022-09-07T02:17:42.668Z,3.10
2022-09-07T02:17:53.433Z,3.10
2022-09-07T02:18:04.174Z,3.20
2022-09-07T02:18:14.955Z,3.40
2022-09-07T02:18:25.719Z,3.30
2022-09-07T02:18:36.450Z,3.40
2022-09-07T02:18:47.244Z,3.20
2022-09-07T02:18:57.991Z,3.40
2022-09-07T02:19:08.734Z,3.40
2022-09-07T02:19:20.428Z,3.50
2022-09-07T02:19:32.125Z,3.50
2022-09-07T02:19:43.824Z,3.40
2022-09-07T02:19:54.601Z,3.10
2022-09-07T02:20:05.334Z,3.10
2022-09-07T02:20:16.117Z,3.10
2022-09-07T02:20:27.825Z,3.30
2022-09-07T02:20:39.531Z,3.20
2022-09-07T02:20:51.244Z,3.00
2022-09-07T02:21:02.009Z,3.00
2022-09-07T02:21:12.739Z,3.60
2022-09-07T02:21:23.484Z,3.70
2022-09-07T02:21:34.257Z,3.40
2022-09-07T02:21:45.948Z,3.20
2022-09-07T02:21:57.677Z,3.40
2022-09-07T02:22:10.186Z,3.30
2022-09-07T02:22:21.946Z,3.20
2022-09-07T02:22:32.710Z,3.00
2022-09-07T02:22:43.485Z,2.90
2022-09-07T02:22:54.253Z,2.90
2022-09-07T02:23:05.007Z,3.10
2022-09-07T02:23:16.707Z,3.10
2022-09-07T02:23:27.456Z,3.10
2022-09-07T02:23:39.889Z,3.20
2022-09-07T02:23:50.656Z,3.30
2022-09-07T02:24:02.358Z,2.90
2022-09-07T02:24:13.099Z,2.70
2022-09-07T02:24:23.858Z,2.80
2022-09-07T02:24:36.297Z,3.00
2022-09-07T02:24:47.047Z,3.00
2022-09-07T02:24:59.263Z,3.20
2022-09-07T02:25:10.011Z,3.00
2022-09-07T02:25:22.436Z,2.90
2022-09-07T02:25:33.176Z,3.10
2022-09-07T02:25:43.969Z,3.30
2022-09-07T02:25:56.387Z,3.40
2022-09-07T02:26:07.127Z,2.90
2022-09-07T02:26:17.858Z,2.90
2022-09-07T02:26:28.628Z,2.90
2022-09-07T02:26:39.427Z,3.00
2022-09-07T02:26:50.188Z,2.80
2022-09-07T02:27:00.929Z,2.80
2022-09-07T02:27:11.687Z,2.80
2022-09-07T02:27:22.428Z,2.90
2022-09-07T02:27:33.159Z,3.10
2022-09-07T02:27:43.896Z,2.90
2022-09-07T02:27:54.639Z,2.90
2022-09-07T02:28:06.348Z,2.80
2022-09-07T02:28:18.794Z,2.70
2022-09-07T02:28:30.633Z,2.70
2022-09-07T02:28:43.146Z,2.40
2022-09-07T02:28:53.918Z,2.50
2022-09-07T02:29:04.668Z,2.70